createdAt,value
2018-06-03T00:00:58.335Z,23.98
2018-06-03T00:03:25.741Z,23.32
2018-06-03T00:05:53.036Z,24.60
2018-06-03T00:08:20.536Z,23.22
2018-06-03T00:10:48.046Z,25.00
2018-06-03T00:13:15.396Z,23.75
2018-06-03T00:15:42.773Z,22.80
2018-06-03T00:18:10.117Z,23.15
2018-06-03T00:20:43.305Z,25.90
2018-06-03T00:23:11.095Z,23.22
2018-06-03T00:25:38.878Z,22.22
2018-06-03T00:28:06.218Z,23.32
2018-06-03T00:30:38.091Z,23.40
2018-06-03T00:33:05.463Z,23.32
2018-06-03T00:35:37.293Z,25.45
2018-06-03T00:38:04.896Z,25.55
2018-06-03T00:40:32.324Z,26.05
2018-06-03T00:42:59.669Z,24.87
2018-06-03T00:45:26.992Z,28.32
2018-06-03T00:47:54.338Z,25.00
2018-06-03T00:50:21.736Z,24.70
2018-06-03T00:52:49.712Z,25.40
2018-06-03T00:55:17.194Z,25.48
2018-06-03T00:57:44.511Z,24.30
2018-06-03T01:00:12.522Z,23.45
2018-06-03T01:02:39.893Z,24.20
2018-06-03T01:05:07.671Z,24.00
2018-06-03T01:07:35.033Z,24.00
2018-06-03T01:10:02.332Z,22.60
2018-06-03T01:12:29.718Z,25.10
2018-06-03T01:14:57.010Z,25.37
2018-06-03T01:17:24.327Z,23.20
2018-06-03T01:19:51.651Z,23.07
2018-06-03T01:24:52.863Z,25.45
2018-06-03T01:27:20.298Z,23.50
2018-06-03T01:29:47.663Z,23.27
2018-06-03T01:32:14.996Z,25.48
2018-06-03T01:34:42.470Z,22.50
2018-06-03T01:37:09.795Z,19.27
2018-06-03T01:39:37.175Z,23.30
2018-06-03T01:42:04.578Z,23.75
2018-06-03T01:44:31.875Z,23.65
2018-06-03T01:46:59.292Z,22.30
2018-06-03T01:49:26.603Z,22.87
2018-06-03T01:52:00.454Z,23.38
2018-06-03T01:54:27.755Z,27.70
2018-06-03T01:57:00.246Z,23.38
2018-06-03T01:59:27.536Z,24.50
2018-06-03T02:01:54.881Z,22.85
2018-06-03T02:04:22.387Z,22.62
2018-06-03T02:06:49.752Z,23.62
2018-06-03T02:09:17.076Z,23.55
2018-06-03T02:11:44.371Z,24.35
2018-06-03T02:14:11.697Z,22.73
2018-06-03T02:16:38.983Z,21.90
2018-06-03T02:19:06.280Z,25.02
2018-06-03T02:21:33.619Z,26.37
2018-06-03T02:24:00.942Z,26.33
2018-06-03T02:26:28.293Z,26.90
2018-06-03T02:28:55.610Z,26.70
2018-06-03T02:31:23.231Z,24.90
2018-06-03T02:33:50.775Z,25.75
2018-06-03T02:36:18.131Z,22.87
2018-06-03T02:38:46.249Z,24.47
2018-06-03T02:41:13.582Z,23.42
2018-06-03T02:43:40.964Z,25.62
2018-06-03T02:46:08.287Z,25.15
2018-06-03T02:48:35.659Z,26.80
2018-06-03T02:51:03.003Z,28.98
2018-06-03T02:53:30.290Z,27.90
2018-06-03T02:55:57.634Z,26.87
2018-06-03T02:58:25.480Z,27.20
2018-06-03T03:00:52.832Z,27.45
2018-06-03T03:03:21.064Z,25.95
2018-06-03T03:05:48.426Z,26.50
2018-06-03T03:08:16.299Z,28.17
2018-06-03T03:10:44.162Z,28.23
2018-06-03T03:13:11.467Z,28.00
2018-06-03T03:18:12.179Z,28.80
2018-06-03T03:20:40.236Z,26.23
2018-06-03T03:23:07.619Z,26.48
2018-06-03T03:25:35.128Z,27.87
2018-06-03T03:28:02.432Z,25.77
2018-06-03T03:30:29.759Z,26.45
2018-06-03T03:32:57.760Z,28.90
2018-06-03T03:35:25.156Z,31.40
2018-06-03T03:37:53.173Z,27.85
2018-06-03T03:40:20.513Z,27.05
2018-06-03T03:42:47.883Z,27.50
2018-06-03T03:45:15.199Z,27.95
2018-06-03T03:47:42.530Z,28.05
2018-06-03T03:50:09.912Z,26.37
2018-06-03T03:52:37.267Z,30.62
2018-06-03T03:55:04.711Z,25.12
2018-06-03T03:57:32.052Z,27.00
2018-06-03T03:59:59.381Z,28.52
2018-06-03T04:02:26.739Z,28.52
2018-06-03T04:07:27.650Z,27.45
2018-06-03T04:09:54.986Z,29.02
2018-06-03T04:12:22.410Z,29.05
2018-06-03T04:14:49.758Z,31.23
2018-06-03T04:17:17.150Z,30.17
2018-06-03T04:19:44.481Z,29.45
2018-06-03T04:22:11.831Z,33.30
2018-06-03T04:24:40.554Z,30.05
2018-06-03T04:27:07.847Z,31.17
2018-06-03T04:29:35.172Z,30.15
2018-06-03T04:32:02.971Z,31.42
2018-06-03T04:34:30.274Z,31.15
2018-06-03T04:36:57.668Z,30.30
2018-06-03T04:39:25.016Z,31.48
2018-06-03T04:41:52.366Z,31.75
2018-06-03T04:44:19.694Z,28.62
2018-06-03T04:46:47.077Z,31.12
2018-06-03T04:49:14.408Z,30.50
2018-06-03T04:51:41.886Z,32.58
2018-06-03T04:54:09.239Z,30.62
2018-06-03T04:56:37.018Z,33.78
2018-06-03T04:59:04.318Z,30.95
2018-06-03T05:01:32.379Z,29.60
2018-06-03T05:03:59.743Z,34.23
2018-06-03T05:06:27.095Z,32.23
2018-06-03T05:08:54.746Z,28.70
2018-06-03T05:11:26.327Z,31.50
2018-06-03T05:13:53.605Z,28.30
2018-06-03T05:16:21.524Z,33.55
2018-06-03T05:18:53.302Z,31.77
2018-06-03T05:21:20.650Z,35.17
2018-06-03T05:23:48.005Z,31.62
2018-06-03T05:26:15.303Z,31.48
2018-06-03T05:28:42.629Z,31.23
2018-06-03T05:31:09.923Z,33.25
2018-06-03T05:33:37.428Z,33.65
2018-06-03T05:36:04.768Z,33.23
2018-06-03T05:38:32.146Z,34.67
2018-06-03T05:40:59.786Z,31.37
2018-06-03T05:43:27.103Z,33.65
2018-06-03T05:45:54.484Z,34.03
2018-06-03T05:48:21.778Z,32.85
2018-06-03T05:50:49.078Z,32.42
2018-06-03T05:53:20.226Z,33.10
2018-06-03T05:55:47.578Z,35.28
2018-06-03T05:58:15.081Z,34.38
2018-06-03T06:00:42.392Z,34.15
2018-06-03T06:03:09.934Z,32.57
2018-06-03T06:05:37.487Z,33.50
2018-06-03T06:08:04.838Z,33.23
2018-06-03T06:10:32.197Z,33.27
2018-06-03T06:12:59.506Z,32.30
2018-06-03T06:15:26.879Z,30.67
2018-06-03T06:17:54.231Z,32.90
2018-06-03T06:20:21.563Z,31.17
2018-06-03T06:22:48.864Z,32.67
2018-06-03T06:25:16.235Z,31.90
2018-06-03T06:27:47.752Z,31.50
2018-06-03T06:30:18.789Z,31.73
2018-06-03T06:32:46.103Z,31.20
2018-06-03T06:35:13.536Z,28.17
2018-06-03T06:37:40.917Z,29.57
2018-06-03T06:40:08.242Z,28.17
2018-06-03T06:42:35.518Z,28.07
2018-06-03T06:45:02.834Z,26.77
2018-06-03T06:50:03.686Z,26.10
2018-06-03T06:52:30.954Z,25.10
2018-06-03T07:00:05.117Z,26.53
2018-06-03T07:02:32.491Z,25.27
2018-06-03T07:04:59.784Z,21.90
2018-06-03T07:07:27.091Z,23.93
2018-06-03T07:09:54.401Z,24.20
2018-06-03T07:12:22.305Z,23.97
2018-06-03T07:14:49.554Z,23.57
2018-06-03T07:17:16.876Z,26.43
2018-06-03T07:19:44.230Z,24.60
2018-06-03T07:22:11.555Z,25.60
2018-06-03T07:24:38.867Z,25.90
2018-06-03T07:27:06.161Z,26.30
2018-06-03T07:29:33.500Z,25.87
2018-06-03T07:32:00.932Z,25.53
2018-06-03T07:34:28.203Z,25.53
2018-06-03T07:36:55.504Z,22.50
2018-06-03T07:39:22.788Z,25.43
2018-06-03T07:41:53.955Z,24.70
2018-06-03T07:44:21.280Z,21.93
2018-06-03T07:46:48.842Z,22.77
2018-06-03T07:49:16.169Z,22.77
2018-06-03T07:51:43.522Z,21.37
2018-06-03T07:54:10.830Z,20.40
2018-06-03T07:59:18.085Z,23.20
2018-06-03T08:01:45.427Z,24.50
2018-06-03T08:04:12.735Z,25.13
2018-06-03T08:06:40.031Z,27.10
2018-06-03T08:09:07.688Z,24.10
2018-06-03T08:11:34.956Z,25.93
2018-06-03T08:14:02.265Z,26.40
2018-06-03T08:16:29.587Z,23.90
2018-06-03T08:18:56.976Z,26.10
2018-06-03T08:21:24.315Z,23.60
2018-06-03T08:23:51.959Z,24.47
2018-06-03T08:26:19.263Z,25.27
2018-06-03T08:28:46.600Z,25.73
2018-06-03T08:31:13.929Z,25.63
2018-06-03T08:33:41.218Z,24.17
2018-06-03T08:36:08.520Z,23.67
2018-06-03T08:38:35.914Z,26.37
2018-06-03T08:41:03.264Z,27.20
2018-06-03T08:43:30.589Z,26.07
2018-06-03T08:45:57.900Z,25.70
2018-06-03T08:48:25.278Z,25.83
2018-06-03T08:50:52.732Z,24.43
2018-06-03T08:53:20.125Z,24.77
2018-06-03T08:55:47.517Z,25.33
2018-06-03T08:58:14.849Z,26.53
2018-06-03T09:00:42.128Z,25.50
2018-06-03T09:03:09.433Z,24.07
2018-06-03T09:05:36.727Z,26.43
2018-06-03T09:08:04.053Z,26.63
2018-06-03T09:10:31.420Z,26.00
2018-06-03T09:12:58.752Z,27.80
2018-06-03T09:15:26.174Z,25.63
2018-06-03T09:17:53.479Z,27.10
2018-06-03T09:22:59.692Z,27.07
2018-06-03T09:25:26.997Z,30.27
2018-06-03T09:27:54.342Z,28.37
2018-06-03T09:30:21.691Z,26.67
2018-06-03T09:32:49.004Z,29.70
2018-06-03T09:35:16.378Z,27.17
2018-06-03T09:37:43.710Z,25.80
2018-06-03T09:40:11.022Z,24.33
2018-06-03T09:42:38.342Z,25.77
2018-06-03T09:45:05.697Z,25.90
2018-06-03T09:47:33.037Z,26.17
2018-06-03T09:50:00.766Z,26.10
2018-06-03T09:52:28.344Z,26.60
2018-06-03T09:54:55.723Z,27.00
2018-06-03T09:57:27.085Z,26.40
2018-06-03T09:59:54.897Z,26.23
2018-06-03T10:02:22.390Z,27.53
2018-06-03T10:04:49.964Z,27.57
2018-06-03T10:07:17.811Z,28.67
2018-06-03T10:09:45.244Z,26.23
2018-06-03T10:12:12.922Z,26.00
2018-06-03T10:14:41.684Z,27.27
2018-06-03T10:17:09.056Z,26.90
2018-06-03T10:19:40.653Z,25.07
2018-06-03T10:22:08.042Z,26.60
2018-06-03T10:24:35.420Z,27.23
2018-06-03T10:27:03.175Z,24.80
2018-06-03T10:29:31.039Z,24.40
2018-06-03T10:44:58.561Z,25.30
2018-06-03T10:47:25.937Z,23.53
2018-06-03T10:49:53.360Z,25.10
2018-06-03T10:52:20.725Z,25.00
2018-06-03T10:54:56.333Z,23.53
2018-06-03T10:57:23.752Z,25.33
2018-06-03T10:59:51.226Z,25.53
2018-06-03T11:02:23.237Z,25.30
2018-06-03T11:04:50.614Z,26.40
2018-06-03T11:07:17.984Z,27.33
2018-06-03T11:09:45.704Z,26.07
2018-06-03T11:12:13.350Z,23.57
2018-06-03T11:14:40.735Z,22.27
2018-06-03T11:17:08.235Z,19.40
2018-06-03T11:19:39.220Z,18.80
2018-06-03T11:22:06.787Z,18.20
2018-06-03T11:24:34.243Z,20.67
2018-06-03T11:27:01.622Z,20.93
2018-06-03T11:29:28.999Z,20.20
2018-06-03T11:31:56.295Z,21.70
2018-06-03T11:34:26.852Z,17.83
2018-06-03T11:36:54.625Z,19.67
2018-06-03T11:39:22.049Z,19.17
2018-06-03T11:41:53.452Z,18.73
2018-06-03T11:44:21.190Z,16.20
2018-06-03T11:46:48.614Z,18.97
2018-06-03T11:49:15.954Z,15.97
2018-06-03T11:51:44.361Z,16.40
2018-06-03T11:54:11.670Z,17.70
2018-06-03T11:56:44.760Z,20.40
2018-06-03T11:59:17.718Z,18.43
2018-06-03T12:01:45.524Z,15.50
2018-06-03T12:04:13.221Z,16.80
2018-06-03T12:06:40.689Z,16.47
2018-06-03T12:09:08.039Z,16.00
2018-06-03T12:11:35.782Z,16.60
2018-06-03T12:14:04.011Z,16.43
2018-06-03T12:16:31.375Z,15.77
2018-06-03T12:18:58.759Z,14.80
2018-06-03T12:21:36.842Z,15.40
2018-06-03T12:24:04.245Z,13.47
2018-06-03T12:26:31.638Z,13.47
2018-06-03T12:28:59.720Z,14.30
2018-06-03T12:31:30.965Z,15.00
2018-06-03T12:33:58.354Z,14.60
2018-06-03T12:36:25.695Z,13.80
2018-06-03T12:38:53.599Z,13.40
2018-06-03T12:41:20.919Z,12.87
2018-06-03T12:43:49.033Z,11.37
2018-06-03T12:46:17.011Z,10.70
2018-06-03T12:48:44.405Z,12.20
2018-06-03T12:51:12.760Z,12.50
2018-06-03T12:53:40.612Z,10.23
2018-06-03T12:56:08.174Z,11.53
2018-06-03T12:58:39.956Z,11.70
2018-06-03T13:01:08.568Z,11.80
2018-06-03T13:03:36.012Z,11.50
2018-06-03T13:06:03.944Z,13.27
2018-06-03T13:08:31.405Z,12.23
2018-06-03T13:10:58.811Z,9.13
2018-06-03T13:13:26.234Z,10.50
2018-06-03T13:15:54.646Z,11.13
2018-06-03T13:18:22.593Z,10.87
2018-06-03T13:20:49.891Z,9.73
2018-06-03T13:23:21.672Z,12.30
2018-06-03T13:25:49.072Z,10.97
2018-06-03T13:28:20.882Z,10.67
2018-06-03T13:30:48.669Z,10.23
2018-06-03T13:33:16.140Z,10.67
2018-06-03T13:35:43.499Z,11.20
2018-06-03T13:38:15.143Z,12.40
2018-06-03T13:40:43.324Z,12.53
2018-06-03T13:43:10.774Z,13.33
2018-06-03T13:45:38.185Z,12.80
2018-06-03T13:48:05.691Z,13.27
2018-06-03T14:00:18.099Z,11.00
2018-06-03T14:02:45.483Z,11.13
2018-06-03T14:05:12.876Z,11.67
2018-06-03T14:07:40.411Z,11.17
2018-06-03T14:10:11.422Z,10.67
2018-06-03T14:12:38.780Z,10.10
2018-06-03T14:15:06.157Z,9.47
2018-06-03T14:17:34.467Z,9.07
2018-06-03T14:20:01.876Z,10.00
2018-06-03T14:22:29.287Z,9.33
2018-06-03T14:24:56.757Z,9.83
2018-06-03T14:27:24.173Z,8.23
2018-06-03T14:29:51.625Z,7.90
2018-06-03T14:32:19.007Z,9.10
2018-06-03T14:34:50.374Z,8.67
2018-06-03T14:37:17.807Z,8.77
2018-06-03T14:39:45.253Z,8.90
2018-06-03T14:42:12.656Z,8.73
2018-06-03T14:44:44.656Z,8.13
2018-06-03T14:47:12.689Z,8.50
2018-06-03T14:49:40.089Z,8.27
2018-06-03T14:52:08.188Z,9.33
2018-06-03T14:54:35.546Z,9.67
2018-06-03T14:57:06.700Z,7.93
2018-06-03T14:59:34.709Z,9.27
2018-06-03T15:04:35.409Z,7.30
2018-06-03T15:07:03.478Z,6.67
2018-06-03T15:09:31.815Z,7.27
2018-06-03T15:11:59.289Z,7.17
2018-06-03T15:14:26.778Z,7.30
2018-06-03T15:16:54.387Z,6.73
2018-06-03T15:19:21.743Z,6.23
2018-06-03T15:21:49.146Z,6.13
2018-06-03T15:24:16.569Z,6.23
2018-06-03T15:26:44.605Z,5.90
2018-06-03T15:29:12.035Z,7.90
2018-06-03T15:31:39.418Z,7.77
2018-06-03T15:34:11.287Z,8.13
2018-06-03T15:36:38.786Z,7.50
2018-06-03T15:39:07.320Z,6.40
2018-06-03T15:41:34.655Z,7.60
2018-06-03T15:44:02.031Z,6.70
2018-06-03T15:46:29.756Z,6.00
2018-06-03T15:48:57.155Z,6.70
2018-06-03T15:51:24.470Z,5.77
2018-06-03T15:53:52.878Z,6.97
2018-06-03T15:56:20.290Z,6.77
2018-06-03T15:58:47.688Z,6.20
2018-06-03T16:01:15.007Z,7.00
2018-06-03T16:03:42.351Z,6.93
2018-06-03T16:06:09.723Z,5.87
2018-06-03T16:08:37.082Z,6.23
2018-06-03T16:11:04.600Z,7.07
2018-06-03T16:13:32.277Z,7.40
2018-06-03T16:15:59.667Z,6.50
2018-06-03T16:18:26.972Z,7.03
2018-06-03T16:20:54.354Z,6.60
2018-06-03T16:23:21.813Z,6.90
2018-06-03T16:25:49.239Z,6.23
2018-06-03T16:28:16.646Z,6.03
2018-06-03T16:30:44.070Z,6.33
2018-06-03T16:33:11.521Z,7.07
2018-06-03T16:35:38.905Z,6.30
2018-06-03T16:38:06.345Z,6.30
2018-06-03T16:40:34.089Z,6.87
2018-06-03T16:45:34.437Z,9.20
2018-06-03T16:48:01.817Z,8.03
2018-06-03T16:50:29.144Z,7.97
2018-06-03T16:52:56.544Z,8.60
2018-06-03T16:55:23.950Z,9.17
2018-06-03T16:57:51.304Z,9.10
2018-06-03T17:02:55.400Z,6.83
2018-06-03T17:05:22.858Z,6.50
2018-06-03T17:07:50.205Z,7.63
2018-06-03T17:10:17.567Z,7.10
2018-06-03T17:12:46.019Z,6.53
2018-06-03T17:15:13.417Z,6.77
2018-06-03T17:17:40.755Z,5.37
2018-06-03T17:20:08.205Z,7.27
2018-06-03T17:22:35.749Z,6.27
2018-06-03T17:25:03.119Z,5.57
2018-06-03T17:27:30.440Z,6.10
2018-06-03T17:30:01.075Z,6.70
2018-06-03T17:32:28.428Z,6.40
2018-06-03T17:34:59.357Z,6.30
2018-06-03T17:37:26.699Z,7.03
2018-06-03T17:39:57.440Z,6.87
2018-06-03T17:42:24.837Z,6.50
2018-06-03T17:44:52.952Z,6.63
2018-06-03T17:47:22.261Z,6.43
2018-06-03T17:49:49.640Z,6.83
2018-06-03T17:52:17.090Z,6.73
2018-06-03T17:54:44.603Z,5.80
2018-06-03T17:57:12.114Z,5.97
2018-06-03T17:59:39.973Z,5.90
2018-06-03T18:02:11.660Z,6.33
2018-06-03T18:04:39.257Z,6.17
2018-06-03T18:07:11.243Z,6.77
2018-06-03T18:09:38.691Z,6.73
2018-06-03T18:12:06.383Z,6.97
2018-06-03T18:14:33.849Z,6.90
2018-06-03T18:17:03.316Z,7.10
2018-06-03T18:19:30.781Z,6.87
2018-06-03T18:22:03.414Z,6.10
2018-06-03T18:24:30.861Z,6.60
2018-06-03T18:26:58.330Z,7.00
2018-06-03T18:29:25.735Z,7.00
2018-06-03T18:31:53.151Z,6.97
2018-06-03T18:34:20.596Z,7.07
2018-06-03T18:36:48.668Z,7.10
2018-06-03T18:39:16.113Z,6.90
2018-06-03T18:41:44.353Z,7.27
2018-06-03T18:44:11.982Z,7.50
2018-06-03T18:46:39.540Z,7.10
2018-06-03T18:49:06.932Z,6.33
2018-06-03T18:51:34.377Z,6.53
2018-06-03T18:54:02.624Z,6.90
2018-06-03T18:56:30.106Z,8.40
2018-06-03T18:58:58.132Z,7.53
2018-06-03T19:01:25.519Z,8.10
2018-06-03T19:03:53.409Z,8.60
2018-06-03T19:06:20.863Z,10.40
2018-06-03T19:08:48.382Z,8.03
2018-06-03T19:11:15.840Z,7.20
2018-06-03T19:13:43.343Z,7.60
2018-06-03T19:16:10.721Z,9.00
2018-06-03T19:18:38.396Z,7.40
2018-06-03T19:21:09.682Z,7.80
2018-06-03T19:23:37.569Z,6.80
2018-06-03T19:26:08.784Z,7.23
2018-06-03T19:28:36.372Z,7.90
2018-06-03T19:31:03.800Z,8.53
2018-06-03T19:33:31.255Z,8.20
2018-06-03T19:35:59.266Z,8.43
2018-06-03T19:38:27.283Z,9.10
2018-06-03T19:40:55.841Z,8.60
2018-06-03T19:43:23.293Z,9.10
2018-06-03T19:45:51.800Z,7.40
2018-06-03T19:48:19.319Z,9.60
2018-06-03T19:50:46.793Z,8.60
2018-06-03T19:53:14.230Z,7.70
2018-06-03T19:55:41.822Z,8.90
2018-06-03T19:58:09.378Z,8.53
2018-06-03T20:00:36.935Z,7.87
2018-06-03T20:03:08.944Z,8.10
2018-06-03T20:05:36.669Z,9.50
2018-06-03T20:08:04.185Z,8.50
2018-06-03T20:13:04.929Z,7.83
2018-06-03T20:15:32.403Z,7.10
2018-06-03T20:17:59.754Z,8.20
2018-06-03T20:20:27.907Z,9.10
2018-06-03T20:22:55.798Z,9.20
2018-06-03T20:25:23.604Z,9.80
2018-06-03T20:27:51.626Z,8.57
2018-06-03T20:30:19.299Z,9.05
2018-06-03T20:32:47.001Z,7.63
2018-06-03T20:35:14.754Z,8.20
2018-06-03T21:23:59.971Z,10.70
2018-06-03T21:26:27.450Z,9.30
2018-06-03T21:28:59.214Z,9.45
2018-06-03T21:31:26.943Z,10.30
2018-06-03T21:33:59.606Z,10.70
2018-06-03T21:36:27.734Z,11.60
2018-06-03T21:38:59.752Z,13.50
2018-06-03T21:41:27.873Z,12.60
2018-06-03T21:43:55.955Z,11.28
2018-06-03T21:46:23.394Z,12.23
2018-06-03T21:48:55.333Z,11.30
2018-06-03T21:51:23.611Z,11.30
2018-06-03T21:53:53.728Z,10.97
2018-06-03T21:56:22.164Z,12.15
2018-06-03T21:58:49.572Z,10.63
2018-06-03T22:01:21.533Z,11.08
2018-06-03T22:03:49.805Z,10.80
2018-06-03T22:06:22.067Z,11.68
2018-06-03T22:08:49.583Z,11.70
2018-06-03T22:11:17.557Z,11.73
2018-06-03T22:13:45.421Z,13.58
2018-06-03T22:16:17.582Z,12.50
2018-06-03T22:18:45.280Z,13.25
2018-06-03T22:21:15.524Z,12.50
2018-06-03T22:23:43.261Z,11.75
2018-06-03T22:26:10.703Z,12.68
2018-06-03T22:28:43.007Z,12.25
2018-06-03T22:31:10.443Z,10.50
2018-06-03T22:33:37.945Z,13.75
2018-06-03T22:36:07.439Z,13.48
2018-06-03T22:38:35.395Z,13.10
2018-06-03T22:41:05.299Z,12.50
2018-06-03T22:43:32.746Z,11.53
2018-06-03T22:46:07.644Z,13.32
2018-06-03T22:48:35.303Z,11.00
2018-06-03T22:51:04.538Z,11.22
2018-06-03T22:53:31.924Z,11.40
2018-06-03T22:56:03.306Z,13.75
2018-06-03T22:58:31.044Z,14.70
2018-06-03T23:00:59.122Z,13.98
2018-06-03T23:03:27.851Z,15.30
2018-06-03T23:05:56.166Z,16.00
2018-06-03T23:08:23.582Z,13.60
2018-06-03T23:10:51.590Z,12.03
2018-06-03T23:13:18.951Z,12.45
2018-06-03T23:15:48.082Z,12.40
2018-06-03T23:18:15.451Z,13.10
2018-06-03T23:20:42.777Z,12.73
2018-06-03T23:23:15.017Z,15.15
2018-06-03T23:25:46.881Z,12.58
2018-06-03T23:28:16.004Z,14.53
2018-06-03T23:30:43.444Z,16.45
2018-06-03T23:33:11.615Z,14.87
2018-06-03T23:35:40.118Z,15.45
2018-06-03T23:38:09.066Z,15.63
2018-06-03T23:40:40.775Z,13.35
2018-06-03T23:43:12.669Z,15.03
2018-06-03T23:45:40.140Z,17.55
2018-06-03T23:48:07.674Z,16.65
2018-06-03T23:50:39.012Z,15.40
2018-06-03T23:53:10.900Z,15.80
